createdAt,value
2022-12-05T00:01:23.980Z,17.50
2022-12-05T00:03:53.329Z,17.05
2022-12-05T00:06:22.185Z,16.42
2022-12-05T00:08:50.102Z,17.02
2022-12-05T00:11:20.586Z,16.50
2022-12-05T00:13:48.972Z,16.20
2022-12-05T00:16:18.975Z,15.52
2022-12-05T00:18:49.334Z,16.20
2022-12-05T00:21:25.240Z,16.67
2022-12-05T00:23:54.305Z,16.30
2022-12-05T00:26:22.379Z,15.75
2022-12-05T00:28:50.191Z,16.80
2022-12-05T00:31:20.299Z,15.63
2022-12-05T00:33:49.108Z,16.73
2022-12-05T00:36:21.232Z,16.55
2022-12-05T00:38:48.710Z,17.00
2022-12-05T00:41:27.277Z,14.85
2022-12-05T00:43:56.149Z,15.38
2022-12-05T00:46:25.528Z,16.30
2022-12-05T00:48:54.286Z,15.40
2022-12-05T00:51:30.092Z,14.98
2022-12-05T00:54:06.986Z,15.65
2022-12-05T00:56:35.184Z,15.55
2022-12-05T00:59:03.726Z,15.85
2022-12-05T01:01:34.383Z,14.50
2022-12-05T01:04:23.425Z,15.05
2022-12-05T01:06:56.097Z,15.98
2022-12-05T01:09:24.225Z,14.73
2022-12-05T01:11:51.807Z,14.32
2022-12-05T01:14:22.917Z,14.70
2022-12-05T01:16:52.072Z,14.70
2022-12-05T01:19:23.240Z,15.45
2022-12-05T01:21:51.680Z,12.97
2022-12-05T01:24:20.248Z,13.35
2022-12-05T01:26:48.317Z,13.15
2022-12-05T01:29:19.224Z,13.18
2022-12-05T01:31:46.723Z,11.82
2022-12-05T01:34:16.204Z,12.55
2022-12-05T01:36:44.342Z,12.27
2022-12-05T01:39:13.537Z,12.05
2022-12-05T01:41:49.644Z,11.85
2022-12-05T01:44:16.923Z,10.90
2022-12-05T01:46:47.687Z,9.95
2022-12-05T01:49:25.749Z,9.75
2022-12-05T01:51:58.535Z,10.05
2022-12-05T01:54:25.921Z,9.10
2022-12-05T01:57:00.935Z,9.02
2022-12-05T01:59:35.921Z,8.98
2022-12-05T02:02:06.079Z,9.05
2022-12-05T02:04:37.596Z,9.45
2022-12-05T02:07:05.041Z,9.10
2022-12-05T02:09:32.414Z,9.32
2022-12-05T02:12:04.301Z,9.23
2022-12-05T02:15:05.841Z,9.45
2022-12-05T02:18:11.805Z,8.90
2022-12-05T02:21:05.336Z,9.15
2022-12-05T02:24:03.514Z,9.75
2022-12-05T02:26:53.263Z,9.57
2022-12-05T02:29:49.037Z,8.93
2022-12-05T02:32:29.661Z,8.77
2022-12-05T02:35:24.340Z,9.30
2022-12-05T02:38:15.237Z,9.68
2022-12-05T02:40:56.403Z,9.80
2022-12-05T02:43:32.829Z,10.13
2022-12-05T02:46:07.091Z,9.88
2022-12-05T02:48:37.269Z,10.40
2022-12-05T02:51:07.523Z,9.60
2022-12-05T02:53:37.381Z,9.48
2022-12-05T02:56:06.446Z,9.82
2022-12-05T02:58:48.407Z,9.30
2022-12-05T03:01:16.238Z,10.05
2022-12-05T03:03:44.487Z,9.23
2022-12-05T03:06:16.180Z,9.88
2022-12-05T03:09:14.997Z,9.15
2022-12-05T03:11:47.416Z,9.43
2022-12-05T03:14:22.838Z,9.02
2022-12-05T03:16:54.007Z,8.77
2022-12-05T03:19:41.032Z,8.82
2022-12-05T03:22:15.145Z,8.60
2022-12-05T03:24:43.655Z,10.10
2022-12-05T03:27:25.755Z,9.85
2022-12-05T03:32:36.889Z,9.90
2022-12-05T03:35:13.448Z,9.98
2022-12-05T03:37:55.690Z,10.90
2022-12-05T03:40:49.149Z,10.07
2022-12-05T03:43:44.156Z,11.35
2022-12-05T03:46:32.900Z,11.60
2022-12-05T03:49:33.859Z,10.40
2022-12-05T03:52:01.746Z,11.65
2022-12-05T03:54:44.065Z,11.27
2022-12-05T03:57:23.344Z,10.02
2022-12-05T03:59:59.372Z,10.65
2022-12-05T04:02:33.610Z,10.63
2022-12-05T04:05:16.512Z,10.82
2022-12-05T04:07:46.255Z,9.55
2022-12-05T04:10:19.237Z,11.85
2022-12-05T04:12:47.084Z,10.55
2022-12-05T04:15:23.267Z,9.45
2022-12-05T04:17:56.978Z,9.77
2022-12-05T04:20:51.143Z,10.73
2022-12-05T04:23:18.635Z,10.18
2022-12-05T04:26:24.384Z,9.75
2022-12-05T04:29:00.198Z,9.95
2022-12-05T04:31:35.679Z,9.38
2022-12-05T04:34:07.154Z,9.00
2022-12-05T04:36:42.311Z,9.73
2022-12-05T04:39:19.969Z,8.93
2022-12-05T04:41:53.380Z,8.75
2022-12-05T04:44:27.669Z,8.55
2022-12-05T04:47:02.144Z,8.05
2022-12-05T04:49:32.642Z,7.90
2022-12-05T04:52:05.751Z,8.73
2022-12-05T04:54:46.066Z,8.30
2022-12-05T04:57:30.859Z,7.82
2022-12-05T04:59:58.522Z,8.68
2022-12-05T05:02:48.215Z,7.25
2022-12-05T05:05:20.735Z,7.63
2022-12-05T05:07:53.254Z,8.30
2022-12-05T05:10:37.756Z,7.30
2022-12-05T05:13:05.124Z,7.45
2022-12-05T05:15:32.468Z,7.72
2022-12-05T05:17:59.812Z,7.85
2022-12-05T05:20:27.560Z,7.60
2022-12-05T05:22:58.486Z,7.60
2022-12-05T05:25:26.136Z,7.68
2022-12-05T05:27:55.767Z,8.15
2022-12-05T05:30:24.958Z,7.57
2022-12-05T05:32:52.757Z,8.10
2022-12-05T05:35:23.245Z,6.88
2022-12-05T05:37:50.749Z,6.95
2022-12-05T05:40:18.378Z,7.35
2022-12-05T05:42:48.060Z,7.70
2022-12-05T05:45:16.132Z,7.63
2022-12-05T05:47:44.021Z,7.45
2022-12-05T05:50:17.799Z,7.30
2022-12-05T05:52:45.417Z,8.00
2022-12-05T05:55:12.834Z,7.65
2022-12-05T05:57:40.160Z,7.47
2022-12-05T06:00:09.717Z,6.93
2022-12-05T06:02:37.605Z,7.72
2022-12-05T06:05:05.468Z,7.63
2022-12-05T06:07:32.828Z,8.40
2022-12-05T06:10:00.544Z,8.02
2022-12-05T06:12:28.217Z,8.20
2022-12-05T06:14:55.658Z,7.65
2022-12-05T06:17:23.064Z,7.95
2022-12-05T06:19:50.434Z,7.88
2022-12-05T06:22:18.034Z,6.95
2022-12-05T06:24:45.388Z,7.38
2022-12-05T06:27:12.785Z,7.53
2022-12-05T06:29:40.248Z,7.00
2022-12-05T06:32:10.089Z,7.13
2022-12-05T06:34:37.490Z,7.32
2022-12-05T06:37:04.940Z,7.20
2022-12-05T06:39:32.525Z,7.47
2022-12-05T06:41:59.970Z,7.05
2022-12-05T06:44:28.727Z,8.18
2022-12-05T06:46:56.325Z,8.05
2022-12-05T06:49:31.609Z,7.15
2022-12-05T06:52:01.209Z,6.90
2022-12-05T06:54:28.532Z,7.32
2022-12-05T06:56:58.650Z,7.35
2022-12-05T06:59:25.967Z,7.25
2022-12-05T07:01:53.390Z,6.97
2022-12-05T07:04:25.892Z,7.68
2022-12-05T07:06:55.857Z,7.38
2022-12-05T07:09:44.386Z,7.50
2022-12-05T07:12:12.710Z,6.80
2022-12-05T07:14:47.571Z,6.70
2022-12-05T07:17:17.110Z,7.18
2022-12-05T07:19:44.714Z,7.05
2022-12-05T07:22:15.704Z,6.95
2022-12-05T07:24:46.551Z,7.75
2022-12-05T07:27:15.301Z,7.55
2022-12-05T07:29:42.718Z,7.32
2022-12-05T07:32:10.150Z,7.30
2022-12-05T07:34:38.926Z,7.40
2022-12-05T07:37:06.393Z,10.85
2022-12-05T07:39:33.833Z,9.80
2022-12-05T07:42:01.182Z,11.88
2022-12-05T07:44:28.544Z,8.25
2022-12-05T07:46:55.833Z,7.43
2022-12-05T07:49:23.202Z,6.57
2022-12-05T07:51:50.706Z,7.40
2022-12-05T07:54:18.105Z,7.35
2022-12-05T07:56:47.942Z,6.65
2022-12-05T07:59:15.577Z,7.10
2022-12-05T08:01:43.010Z,7.55
2022-12-05T08:04:15.072Z,7.90
2022-12-05T08:06:43.489Z,7.43
2022-12-05T08:09:10.936Z,7.60
2022-12-05T08:11:38.241Z,7.15
2022-12-05T08:14:06.582Z,7.10
2022-12-05T08:16:34.027Z,6.57
2022-12-05T08:19:04.943Z,7.03
2022-12-05T08:21:35.191Z,7.35
2022-12-05T08:24:06.067Z,7.80
2022-12-05T08:26:35.417Z,7.10
2022-12-05T08:29:06.723Z,6.80
2022-12-05T08:31:36.970Z,6.72
2022-12-05T08:34:04.382Z,7.38
2022-12-05T08:36:32.321Z,7.38
2022-12-05T08:39:03.106Z,6.22
2022-12-05T08:41:31.134Z,5.60
2022-12-05T08:44:06.051Z,5.43
2022-12-05T08:46:36.022Z,5.68
2022-12-05T08:49:05.068Z,5.55
2022-12-05T08:51:32.445Z,5.78
2022-12-05T08:54:04.265Z,5.43
2022-12-05T08:56:33.126Z,5.40
2022-12-05T08:59:05.851Z,5.10
2022-12-05T09:01:37.180Z,4.80
2022-12-05T09:04:05.703Z,5.03
2022-12-05T09:06:34.731Z,4.80
2022-12-05T09:09:06.147Z,4.55
2022-12-05T09:11:36.487Z,4.47
2022-12-05T09:14:05.580Z,4.30
2022-12-05T09:16:38.335Z,4.43
2022-12-05T09:19:18.164Z,3.97
2022-12-05T09:21:45.561Z,4.28
2022-12-05T09:24:13.509Z,4.03
2022-12-05T09:26:41.786Z,3.63
2022-12-05T09:29:16.268Z,4.22
2022-12-05T09:31:46.870Z,3.67
2022-12-05T09:34:15.392Z,3.90
2022-12-05T09:36:43.232Z,3.80
2022-12-05T09:39:11.336Z,3.65
2022-12-05T09:42:07.919Z,3.70
2022-12-05T09:44:46.836Z,3.22
2022-12-05T09:47:19.869Z,3.53
2022-12-05T09:50:00.018Z,3.95
2022-12-05T09:52:39.863Z,3.72
2022-12-05T09:55:16.394Z,3.92
2022-12-05T09:57:55.169Z,3.05
2022-12-05T10:00:22.966Z,3.45
2022-12-05T10:03:35.898Z,3.83
2022-12-05T10:06:16.404Z,2.90
2022-12-05T10:09:05.809Z,2.92
2022-12-05T10:11:38.870Z,2.60
2022-12-05T10:14:14.708Z,2.25
2022-12-05T10:16:51.644Z,2.85
2022-12-05T10:19:23.867Z,3.00
2022-12-05T10:21:56.828Z,3.03
2022-12-05T10:24:32.125Z,3.13
2022-12-05T10:27:04.768Z,2.45
2022-12-05T10:29:34.952Z,2.40
2022-12-05T10:32:13.185Z,2.70
2022-12-05T10:34:43.076Z,2.70
2022-12-05T10:37:15.822Z,2.58
2022-12-05T10:39:44.258Z,2.63
2022-12-05T10:42:19.470Z,2.70
2022-12-05T10:44:58.216Z,2.63
2022-12-05T10:47:26.004Z,6.85
2022-12-05T10:49:56.010Z,8.25
2022-12-05T10:52:24.085Z,7.93
2022-12-05T10:55:06.567Z,7.88
2022-12-05T10:57:33.910Z,8.73
2022-12-05T11:00:13.868Z,8.93
2022-12-05T11:02:43.035Z,8.38
2022-12-05T11:05:13.913Z,7.90
2022-12-05T11:07:44.185Z,7.57
2022-12-05T11:10:26.912Z,7.03
2022-12-05T11:12:57.888Z,6.78
2022-12-05T11:15:28.958Z,7.00
2022-12-05T11:18:17.398Z,7.10
2022-12-05T11:20:44.803Z,7.82
2022-12-05T11:23:27.653Z,8.25
2022-12-05T11:25:57.361Z,7.88
2022-12-05T11:28:36.840Z,7.38
2022-12-05T11:31:16.407Z,6.70
2022-12-05T11:33:43.824Z,7.25
2022-12-05T11:36:11.112Z,6.85
2022-12-05T11:38:41.230Z,7.47
2022-12-05T11:41:18.238Z,5.72
2022-12-05T11:44:00.472Z,5.45
2022-12-05T11:46:58.539Z,4.60
2022-12-05T11:49:44.358Z,4.28
2022-12-05T11:52:14.458Z,3.78
2022-12-05T11:55:23.371Z,3.08
2022-12-05T11:57:52.435Z,2.60
2022-12-05T12:00:24.881Z,2.53
2022-12-05T12:02:58.116Z,2.40
2022-12-05T12:05:39.103Z,2.63
2022-12-05T12:08:29.626Z,2.45
2022-12-05T12:11:29.953Z,2.33
2022-12-05T12:14:06.110Z,2.40
2022-12-05T12:16:59.371Z,2.47
2022-12-05T12:19:45.112Z,2.58
2022-12-05T12:22:43.122Z,2.05
2022-12-05T12:25:19.213Z,1.83
2022-12-05T12:28:14.849Z,1.38
2022-12-05T12:31:17.473Z,1.33
2022-12-05T12:33:59.449Z,1.40
2022-12-05T12:36:45.693Z,1.00
2022-12-05T12:39:30.971Z,1.20
2022-12-05T12:42:35.615Z,1.08
2022-12-05T12:45:24.821Z,1.40
2022-12-05T12:47:55.112Z,1.38
2022-12-05T12:50:29.591Z,1.50
2022-12-05T12:53:27.611Z,1.52
2022-12-05T12:56:19.665Z,1.77
2022-12-05T12:59:03.129Z,1.30
2022-12-05T13:01:55.127Z,1.60
2022-12-05T13:04:30.146Z,1.60
2022-12-05T13:07:03.948Z,1.85
2022-12-05T13:09:40.358Z,1.70
2022-12-05T13:12:15.432Z,1.95
2022-12-05T13:14:52.379Z,1.90
2022-12-05T13:17:22.769Z,1.90
2022-12-05T13:19:52.466Z,2.08
2022-12-05T13:22:26.261Z,2.08
2022-12-05T13:24:55.165Z,2.25
2022-12-05T13:27:27.486Z,2.47
2022-12-05T13:30:01.232Z,2.38
2022-12-05T13:32:43.909Z,2.80
2022-12-05T13:35:55.193Z,2.47
2022-12-05T13:38:49.950Z,3.30
2022-12-05T13:41:36.304Z,2.55
2022-12-05T13:44:12.642Z,2.95
2022-12-05T13:46:43.190Z,2.80
2022-12-05T13:49:26.101Z,2.67
2022-12-05T13:51:53.838Z,2.40
2022-12-05T13:54:27.874Z,2.70
2022-12-05T13:57:05.239Z,2.97
2022-12-05T14:00:00.497Z,2.83
2022-12-05T14:02:46.483Z,2.72
2022-12-05T14:05:13.983Z,2.92
2022-12-05T14:07:48.175Z,3.30
2022-12-05T14:10:20.974Z,3.38
2022-12-05T14:12:54.017Z,3.67
2022-12-05T14:15:24.120Z,3.50
2022-12-05T14:17:58.699Z,3.60
2022-12-05T14:20:52.384Z,3.72
2022-12-05T14:23:44.422Z,3.63
2022-12-05T14:26:49.444Z,3.78
2022-12-05T14:29:37.313Z,3.70
2022-12-05T14:32:04.930Z,3.70
2022-12-05T14:34:36.925Z,3.40
2022-12-05T14:37:26.208Z,3.80
2022-12-05T14:39:58.407Z,4.03
2022-12-05T14:42:36.073Z,4.20
2022-12-05T14:45:42.288Z,4.72
2022-12-05T14:48:15.616Z,4.93
2022-12-05T14:50:46.269Z,4.88
2022-12-05T14:53:34.596Z,4.75
2022-12-05T14:56:25.046Z,3.75
2022-12-05T14:59:02.076Z,4.28
2022-12-05T15:01:50.324Z,3.63
2022-12-05T15:04:24.273Z,4.32
2022-12-05T15:07:35.630Z,3.88
2022-12-05T15:10:23.502Z,4.15
2022-12-05T15:13:05.263Z,4.28
2022-12-05T15:15:37.593Z,4.90
2022-12-05T15:18:27.457Z,4.82
2022-12-05T15:20:59.203Z,5.28
2022-12-05T15:23:48.417Z,4.90
2022-12-05T15:26:47.602Z,4.88
2022-12-05T15:29:23.817Z,5.25
2022-12-05T15:31:53.217Z,5.00
2022-12-05T15:34:44.822Z,4.95
2022-12-05T15:37:44.167Z,5.18
2022-12-05T15:40:17.593Z,5.40
2022-12-05T15:42:47.207Z,4.97
2022-12-05T15:45:17.459Z,6.05
2022-12-05T15:47:47.703Z,5.60
2022-12-05T15:50:17.060Z,5.72
2022-12-05T15:52:51.401Z,6.00
2022-12-05T15:55:27.784Z,5.72
2022-12-05T15:58:06.874Z,4.63
2022-12-05T16:00:40.883Z,5.63
2022-12-05T16:03:17.869Z,5.57
2022-12-05T16:05:57.913Z,4.95
2022-12-05T16:08:30.002Z,6.78
2022-12-05T16:10:57.423Z,7.70
2022-12-05T16:13:27.131Z,6.28
2022-12-05T16:15:57.641Z,5.40
2022-12-05T16:18:31.140Z,5.60
2022-12-05T16:20:59.009Z,5.55
2022-12-05T16:23:32.917Z,5.35
2022-12-05T16:26:12.546Z,5.32
2022-12-05T16:28:39.973Z,5.63
2022-12-05T16:31:08.254Z,5.72
2022-12-05T16:33:38.964Z,5.50
2022-12-05T16:36:14.501Z,5.90
2022-12-05T16:38:43.374Z,5.90
2022-12-05T16:41:11.969Z,6.10
2022-12-05T16:43:39.319Z,5.68
2022-12-05T16:46:13.269Z,5.90
2022-12-05T16:48:45.584Z,5.57
2022-12-05T16:51:18.259Z,5.90
2022-12-05T16:53:51.014Z,5.82
2022-12-05T16:56:25.278Z,5.93
2022-12-05T16:58:53.303Z,5.75
2022-12-05T17:01:27.301Z,5.18
2022-12-05T17:03:56.153Z,5.47
2022-12-05T17:06:25.891Z,5.35
2022-12-05T17:08:54.717Z,5.07
2022-12-05T17:11:29.620Z,5.07
2022-12-05T17:13:58.810Z,5.18
2022-12-05T17:16:27.080Z,5.22
2022-12-05T17:18:54.877Z,5.40
2022-12-05T17:21:25.744Z,5.60
2022-12-05T17:23:53.166Z,5.38
2022-12-05T17:26:24.948Z,5.68
2022-12-05T17:28:52.861Z,5.20
2022-12-05T17:31:22.935Z,5.30
2022-12-05T17:33:52.806Z,5.88
2022-12-05T17:36:21.215Z,6.35
2022-12-05T17:38:49.089Z,5.45
2022-12-05T17:41:25.273Z,6.43
2022-12-05T17:43:52.836Z,6.30
2022-12-05T17:46:22.808Z,6.28
2022-12-05T17:48:51.722Z,5.93
2022-12-05T17:51:20.275Z,6.15
2022-12-05T17:53:47.811Z,6.50
2022-12-05T17:56:18.307Z,6.38
2022-12-05T17:58:46.181Z,6.07
2022-12-05T18:01:19.642Z,6.82
2022-12-05T18:03:48.799Z,6.72
2022-12-05T18:06:16.992Z,6.40
2022-12-05T18:08:45.559Z,7.07
2022-12-05T18:11:14.834Z,6.20
2022-12-05T18:13:42.326Z,5.82
2022-12-05T18:16:09.905Z,5.97
2022-12-05T18:18:37.321Z,6.30
2022-12-05T18:21:12.458Z,6.32
2022-12-05T18:23:40.741Z,6.03
2022-12-05T18:26:09.830Z,5.40
2022-12-05T18:28:38.826Z,5.80
2022-12-05T18:31:12.412Z,5.95
2022-12-05T18:33:40.281Z,5.63
2022-12-05T18:36:17.406Z,6.05
2022-12-05T18:38:53.268Z,5.93
2022-12-05T18:41:23.647Z,5.50
2022-12-05T18:43:51.286Z,6.35
2022-12-05T18:46:19.326Z,5.90
2022-12-05T18:48:47.996Z,5.95
2022-12-05T18:51:19.203Z,6.15
2022-12-05T18:53:52.652Z,6.30
2022-12-05T18:56:29.412Z,6.82
2022-12-05T18:59:00.199Z,7.18
2022-12-05T19:01:29.635Z,8.45
2022-12-05T19:03:58.256Z,6.85
2022-12-05T19:06:29.869Z,7.40
2022-12-05T19:09:00.145Z,7.70
2022-12-05T19:11:28.856Z,7.38
2022-12-05T19:13:58.433Z,8.50
2022-12-05T19:16:27.035Z,9.23
2022-12-05T19:18:58.366Z,8.05
2022-12-05T19:21:27.722Z,8.25
2022-12-05T19:23:55.748Z,8.18
2022-12-05T19:26:23.753Z,7.93
2022-12-05T19:28:51.503Z,8.30
2022-12-05T19:31:23.591Z,9.27
2022-12-05T19:36:22.232Z,9.77
2022-12-05T19:38:51.489Z,10.50
2022-12-05T19:41:27.450Z,11.32
2022-12-05T19:44:00.463Z,12.00
2022-12-05T19:46:29.866Z,12.32
2022-12-05T19:49:15.788Z,13.80
2022-12-05T19:52:01.622Z,13.40
2022-12-05T19:54:30.161Z,14.00
2022-12-05T19:57:00.559Z,14.20
2022-12-05T19:59:28.033Z,14.10
2022-12-05T20:01:55.533Z,16.08
2022-12-05T20:04:23.017Z,20.27
2022-12-05T20:06:50.480Z,17.50
2022-12-05T20:09:20.605Z,16.63
2022-12-05T20:11:55.196Z,16.85
2022-12-05T20:14:25.695Z,18.17
2022-12-05T20:16:53.619Z,17.35
2022-12-05T20:19:21.915Z,19.02
2022-12-05T20:21:49.541Z,19.13
2022-12-05T20:24:16.946Z,19.02
2022-12-05T20:26:44.931Z,18.60
2022-12-05T20:29:12.677Z,18.67
2022-12-05T20:31:41.917Z,19.10
2022-12-05T20:34:11.596Z,19.17
2022-12-05T20:36:38.909Z,18.05
2022-12-05T20:39:08.728Z,17.88
2022-12-05T20:41:36.204Z,18.42
2022-12-05T20:44:08.900Z,19.50
2022-12-05T20:46:36.887Z,19.15
2022-12-05T20:49:04.398Z,18.58
2022-12-05T20:51:34.041Z,18.08
2022-12-05T20:54:03.869Z,18.10
2022-12-05T20:56:32.831Z,19.00
2022-12-05T20:59:02.847Z,18.63
2022-12-05T21:01:31.954Z,19.33
2022-12-05T21:03:59.609Z,17.58
2022-12-05T21:06:46.595Z,19.90
2022-12-05T21:09:26.591Z,18.90
2022-12-05T21:11:55.416Z,18.77
2022-12-05T21:14:24.065Z,17.63
2022-12-05T21:16:53.243Z,18.60
2022-12-05T21:19:21.389Z,18.85
2022-12-05T21:21:49.799Z,20.13
2022-12-05T21:24:17.132Z,19.25
2022-12-05T21:26:44.539Z,19.80
2022-12-05T21:29:11.902Z,19.90
2022-12-05T21:31:44.014Z,19.67
2022-12-05T21:34:19.612Z,19.10
2022-12-05T21:36:47.733Z,18.63
2022-12-05T21:39:15.950Z,18.23
2022-12-05T21:41:43.275Z,18.20
2022-12-05T21:44:10.724Z,17.85
2022-12-05T21:46:38.289Z,19.02
2022-12-05T21:49:05.761Z,17.98
2022-12-05T21:51:33.123Z,17.58
2022-12-05T21:54:00.500Z,18.17
2022-12-05T21:56:28.564Z,18.55
2022-12-05T21:58:57.369Z,17.88
2022-12-05T22:01:27.729Z,17.27
2022-12-05T22:04:00.918Z,17.23
2022-12-05T22:06:34.022Z,18.25
2022-12-05T22:09:01.862Z,18.27
2022-12-05T22:11:29.258Z,18.02
2022-12-05T22:13:56.637Z,17.08
2022-12-05T22:16:30.655Z,17.95
2022-12-05T22:19:00.191Z,17.10
2022-12-05T22:21:28.001Z,18.02
2022-12-05T22:23:55.606Z,17.65
2022-12-05T22:26:25.277Z,17.92
2022-12-05T22:28:54.228Z,17.90
2022-12-05T22:31:22.997Z,17.10
2022-12-05T22:33:51.036Z,18.40
2022-12-05T22:36:19.671Z,17.13
2022-12-05T22:38:48.115Z,17.70
2022-12-05T22:41:20.129Z,18.30
2022-12-05T22:43:49.273Z,18.38
2022-12-05T22:46:19.046Z,18.80
2022-12-05T22:48:48.265Z,18.30
2022-12-05T22:51:16.832Z,18.20
2022-12-05T22:53:44.796Z,17.38
2022-12-05T22:56:15.071Z,18.23
2022-12-05T22:58:43.476Z,18.33
2022-12-05T23:01:13.361Z,18.67
2022-12-05T23:03:41.898Z,18.80
2022-12-05T23:06:11.918Z,17.67
2022-12-05T23:08:41.433Z,18.75
2022-12-05T23:11:09.692Z,18.70
2022-12-05T23:13:38.194Z,18.10
2022-12-05T23:16:07.664Z,18.55
2022-12-05T23:18:46.565Z,18.08
2022-12-05T23:21:16.712Z,19.00
2022-12-05T23:23:44.890Z,18.48
2022-12-05T23:26:12.849Z,18.15
2022-12-05T23:28:40.294Z,17.63
2022-12-05T23:31:09.795Z,17.90
2022-12-05T23:33:37.774Z,17.92
2022-12-05T23:36:05.669Z,18.55
2022-12-05T23:38:34.728Z,18.67
2022-12-05T23:41:07.913Z,18.08
2022-12-05T23:43:36.631Z,17.77
2022-12-05T23:46:05.477Z,17.42
2022-12-05T23:48:33.427Z,18.60
2022-12-05T23:51:04.354Z,17.38
2022-12-05T23:53:33.758Z,18.20
2022-12-05T23:56:15.659Z,18.25
2022-12-05T23:58:43.850Z,17.40
